SAS820 EKCH-ENBR
Flight info
| Callsign | SAS820 |
|---|---|
| Flight time | 1h 4m |
| Altitude | 38000 |
| Route | GOLGA DCT BADAB |
| Aircraft | B737/M-SDE2E3FGHIRWXY/LB1 |
Departure
| Time | 2026-05-06 15:34 |
|---|---|
| Airport | Copenhagen Kastrup Airport (EKCH) |
Arrival
| Time | 2026-05-06 16:38 |
|---|---|
| Airport | Bergen Airport, Flesland (ENBR) |
| Time | Latitude | Longitude | Altitude | Speed | Heading |
|---|---|---|---|---|---|
| 2026-05-06 15:15 | 55.62736 | 12.64279 | 22 ft | 0 kts | 298° |
| 2026-05-06 15:26 | 55.62726 | 12.64312 | 21 ft | 4 kts | 289° |
| 2026-05-06 15:26 | 55.62724 | 12.64353 | 20 ft | 4 kts | 232° |
| 2026-05-06 15:26 | 55.62730 | 12.64364 | 20 ft | 1 kts | 206° |
| 2026-05-06 15:28 | 55.62692 | 12.64336 | 20 ft | 16 kts | 201° |
| 2026-05-06 15:28 | 55.62580 | 12.64229 | 22 ft | 18 kts | 213° |
| 2026-05-06 15:28 | 55.62482 | 12.64304 | 18 ft | 18 kts | 122° |
| 2026-05-06 15:29 | 55.62410 | 12.64475 | 18 ft | 17 kts | 127° |
| 2026-05-06 15:29 | 55.62349 | 12.64650 | 20 ft | 16 kts | 121° |
| 2026-05-06 15:29 | 55.62288 | 12.64815 | 23 ft | 16 kts | 125° |
| 2026-05-06 15:29 | 55.62221 | 12.64993 | 23 ft | 21 kts | 122° |
| 2026-05-06 15:30 | 55.62103 | 12.65041 | 21 ft | 21 kts | 206° |
| 2026-05-06 15:30 | 55.61979 | 12.64916 | 20 ft | 20 kts | 210° |
| 2026-05-06 15:30 | 55.61858 | 12.64779 | 17 ft | 22 kts | 209° |
| 2026-05-06 15:30 | 55.61703 | 12.64599 | 20 ft | 30 kts | 213° |
| 2026-05-06 15:31 | 55.61529 | 12.64399 | 23 ft | 31 kts | 212° |
| 2026-05-06 15:31 | 55.61335 | 12.64178 | 19 ft | 35 kts | 213° |
| 2026-05-06 15:31 | 55.61129 | 12.63936 | 19 ft | 35 kts | 212° |
| 2026-05-06 15:32 | 55.60758 | 12.63511 | 18 ft | 29 kts | 213° |
| 2026-05-06 15:32 | 55.60597 | 12.63310 | 19 ft | 27 kts | 221° |
| 2026-05-06 15:32 | 55.60461 | 12.63125 | 23 ft | 22 kts | 188° |
| 2026-05-06 15:32 | 55.60345 | 12.63282 | 27 ft | 21 kts | 118° |
| 2026-05-06 15:33 | 55.60419 | 12.63472 | 21 ft | 26 kts | 42° |
| 2026-05-06 15:33 | 55.60693 | 12.63903 | 23 ft | 96 kts | 41° |
| 2026-05-06 15:33 | 55.61428 | 12.65039 | 22 ft | 182 kts | 41° |
| 2026-05-06 15:33 | 55.62525 | 12.66687 | 463 ft | 220 kts | 43° |
| 2026-05-06 15:34 | 55.63775 | 12.68556 | 1349 ft | 246 kts | 43° |
| 2026-05-06 15:34 | 55.65072 | 12.70464 | 2625 ft | 237 kts | 41° |
| 2026-05-06 15:34 | 55.66531 | 12.71728 | 3837 ft | 237 kts | 13° |
| 2026-05-06 15:34 | 55.68178 | 12.71561 | 4879 ft | 243 kts | 344° |
| 2026-05-06 15:35 | 55.69670 | 12.70026 | 5715 ft | 260 kts | 323° |
| 2026-05-06 15:35 | 55.71037 | 12.67817 | 6622 ft | 270 kts | 317° |
| 2026-05-06 15:35 | 55.72364 | 12.65431 | 7674 ft | 273 kts | 315° |
| 2026-05-06 15:35 | 55.73694 | 12.63006 | 8749 ft | 276 kts | 314° |
| 2026-05-06 15:36 | 55.75048 | 12.60555 | 9817 ft | 279 kts | 314° |
| 2026-05-06 15:36 | 55.76427 | 12.58080 | 10648 ft | 290 kts | 314° |
| 2026-05-06 15:36 | 55.77919 | 12.55419 | 10927 ft | 319 kts | 314° |
| 2026-05-06 15:36 | 55.78978 | 12.53547 | 11329 ft | 327 kts | 314° |
| 2026-05-06 15:37 | 55.80598 | 12.50691 | 12309 ft | 330 kts | 314° |
| 2026-05-06 15:37 | 55.82238 | 12.47799 | 13280 ft | 334 kts | 314° |
| 2026-05-06 15:37 | 55.83905 | 12.44856 | 14094 ft | 341 kts | 313° |
| 2026-05-06 15:37 | 55.85599 | 12.41862 | 14917 ft | 345 kts | 313° |
| 2026-05-06 15:38 | 55.87312 | 12.38831 | 15760 ft | 350 kts | 313° |
| 2026-05-06 15:38 | 55.89049 | 12.35751 | 16589 ft | 354 kts | 313° |
| 2026-05-06 15:38 | 55.90733 | 12.32524 | 17415 ft | 358 kts | 306° |
| 2026-05-06 15:38 | 55.92201 | 12.28913 | 18235 ft | 361 kts | 302° |
| 2026-05-06 15:39 | 55.93640 | 12.25216 | 18964 ft | 365 kts | 302° |
| 2026-05-06 15:39 | 55.95091 | 12.21467 | 19722 ft | 368 kts | 302° |
| 2026-05-06 15:39 | 55.96556 | 12.17700 | 20464 ft | 371 kts | 302° |
| 2026-05-06 15:39 | 55.98042 | 12.13906 | 21188 ft | 375 kts | 302° |
| 2026-05-06 15:40 | 55.99547 | 12.10073 | 21912 ft | 378 kts | 302° |
| 2026-05-06 15:40 | 56.01065 | 12.06208 | 22627 ft | 382 kts | 301° |
| 2026-05-06 15:40 | 56.02676 | 12.02404 | 23314 ft | 388 kts | 308° |
| 2026-05-06 15:40 | 56.04641 | 11.99017 | 23916 ft | 396 kts | 316° |
| 2026-05-06 15:41 | 56.06925 | 11.96185 | 24459 ft | 405 kts | 325° |
| 2026-05-06 15:41 | 56.09387 | 11.93673 | 24998 ft | 410 kts | 326° |
| 2026-05-06 15:41 | 56.11902 | 11.91199 | 25507 ft | 414 kts | 327° |
| 2026-05-06 15:41 | 56.14438 | 11.88706 | 26003 ft | 418 kts | 326° |
| 2026-05-06 15:42 | 56.16995 | 11.86158 | 26518 ft | 422 kts | 326° |
| 2026-05-06 15:42 | 56.19563 | 11.83564 | 27009 ft | 426 kts | 326° |
| 2026-05-06 15:42 | 56.22150 | 11.80929 | 27486 ft | 430 kts | 325° |
| 2026-05-06 15:42 | 56.24725 | 11.78296 | 27950 ft | 434 kts | 325° |
| 2026-05-06 15:43 | 56.27359 | 11.75598 | 28393 ft | 438 kts | 325° |
| 2026-05-06 15:43 | 56.30016 | 11.72874 | 28834 ft | 442 kts | 325° |
| 2026-05-06 15:43 | 56.32655 | 11.70029 | 29260 ft | 442 kts | 320° |
| 2026-05-06 15:43 | 56.35047 | 11.66573 | 29658 ft | 439 kts | 310° |
| 2026-05-06 15:44 | 56.37208 | 11.62673 | 30077 ft | 441 kts | 309° |
| 2026-05-06 15:44 | 56.39342 | 11.58677 | 30429 ft | 443 kts | 308° |
| 2026-05-06 15:44 | 56.41476 | 11.54638 | 30807 ft | 445 kts | 308° |
| 2026-05-06 15:44 | 56.43619 | 11.50584 | 31186 ft | 446 kts | 308° |
| 2026-05-06 15:45 | 56.45767 | 11.46540 | 31622 ft | 446 kts | 308° |
| 2026-05-06 15:45 | 56.47917 | 11.42516 | 32170 ft | 443 kts | 308° |
| 2026-05-06 15:45 | 56.50055 | 11.38525 | 32719 ft | 439 kts | 308° |
| 2026-05-06 15:45 | 56.52179 | 11.34564 | 33194 ft | 438 kts | 308° |
| 2026-05-06 15:46 | 56.54297 | 11.30609 | 33623 ft | 437 kts | 308° |
| 2026-05-06 15:46 | 56.56409 | 11.26661 | 34029 ft | 436 kts | 308° |
| 2026-05-06 15:46 | 56.58517 | 11.22715 | 34385 ft | 435 kts | 308° |
| 2026-05-06 15:46 | 56.60592 | 11.18822 | 34670 ft | 435 kts | 308° |
| 2026-05-06 15:47 | 56.62698 | 11.14863 | 34948 ft | 436 kts | 308° |
| 2026-05-06 15:47 | 56.64804 | 11.10897 | 35258 ft | 435 kts | 308° |
| 2026-05-06 15:47 | 56.66903 | 11.06940 | 35575 ft | 435 kts | 308° |
| 2026-05-06 15:47 | 56.68999 | 11.02977 | 35856 ft | 435 kts | 308° |
| 2026-05-06 15:48 | 56.71091 | 10.98999 | 36124 ft | 435 kts | 308° |
| 2026-05-06 15:48 | 56.73186 | 10.95018 | 36405 ft | 435 kts | 308° |
| 2026-05-06 15:48 | 56.75284 | 10.91043 | 36687 ft | 435 kts | 308° |
| 2026-05-06 15:48 | 56.77379 | 10.87064 | 36952 ft | 435 kts | 308° |
| 2026-05-06 15:49 | 56.79474 | 10.83079 | 37218 ft | 435 kts | 308° |
| 2026-05-06 15:49 | 56.81569 | 10.79087 | 37483 ft | 435 kts | 308° |
| 2026-05-06 15:49 | 56.83658 | 10.75095 | 37756 ft | 435 kts | 308° |
| 2026-05-06 15:49 | 56.85748 | 10.71094 | 37962 ft | 436 kts | 308° |
| 2026-05-06 15:50 | 56.89956 | 10.63010 | 37949 ft | 439 kts | 308° |
| 2026-05-06 15:50 | 56.94143 | 10.54948 | 37940 ft | 434 kts | 308° |
| 2026-05-06 15:51 | 56.98285 | 10.46944 | 37951 ft | 431 kts | 308° |
| 2026-05-06 15:51 | 57.02374 | 10.39008 | 37956 ft | 430 kts | 308° |
| 2026-05-06 15:52 | 57.06472 | 10.31026 | 37958 ft | 429 kts | 308° |
| 2026-05-06 15:52 | 57.10562 | 10.23034 | 37965 ft | 429 kts | 308° |
| 2026-05-06 15:53 | 57.14648 | 10.15024 | 37966 ft | 429 kts | 308° |
| 2026-05-06 15:53 | 57.18734 | 10.06984 | 37971 ft | 430 kts | 308° |
| 2026-05-06 15:54 | 57.22824 | 9.98908 | 37972 ft | 432 kts | 308° |
| 2026-05-06 15:54 | 57.26926 | 9.90781 | 37972 ft | 433 kts | 308° |
| 2026-05-06 15:55 | 57.31037 | 9.82608 | 37969 ft | 435 kts | 307° |
| 2026-05-06 15:55 | 57.35125 | 9.74453 | 37973 ft | 435 kts | 307° |
| 2026-05-06 15:56 | 57.39243 | 9.66210 | 37968 ft | 436 kts | 307° |
| 2026-05-06 15:56 | 57.43357 | 9.57945 | 37972 ft | 436 kts | 307° |
| 2026-05-06 15:57 | 57.47469 | 9.49656 | 37975 ft | 435 kts | 307° |
| 2026-05-06 15:57 | 57.51564 | 9.41369 | 37975 ft | 435 kts | 307° |
| 2026-05-06 15:58 | 57.55619 | 9.33136 | 37981 ft | 434 kts | 307° |
| 2026-05-06 15:58 | 57.59686 | 9.24847 | 37977 ft | 433 kts | 307° |
| 2026-05-06 15:59 | 57.63742 | 9.16551 | 37980 ft | 432 kts | 307° |
| 2026-05-06 15:59 | 57.67783 | 9.08256 | 37983 ft | 432 kts | 307° |
| 2026-05-06 16:00 | 57.71815 | 8.99950 | 37979 ft | 431 kts | 307° |
| 2026-05-06 16:00 | 57.75837 | 8.91636 | 37979 ft | 430 kts | 307° |
| 2026-05-06 16:01 | 57.79846 | 8.83317 | 37975 ft | 430 kts | 307° |
| 2026-05-06 16:01 | 57.83827 | 8.75028 | 37977 ft | 430 kts | 307° |
| 2026-05-06 16:02 | 57.87822 | 8.66678 | 37976 ft | 430 kts | 307° |
| 2026-05-06 16:02 | 57.91808 | 8.58319 | 37977 ft | 429 kts | 307° |
| 2026-05-06 16:03 | 57.95792 | 8.49934 | 37968 ft | 429 kts | 307° |
| 2026-05-06 16:03 | 57.99772 | 8.41527 | 37980 ft | 430 kts | 307° |
| 2026-05-06 16:04 | 58.03749 | 8.33095 | 37975 ft | 431 kts | 306° |
| 2026-05-06 16:04 | 58.07726 | 8.24633 | 37972 ft | 431 kts | 306° |
| 2026-05-06 16:05 | 58.11696 | 8.16154 | 37969 ft | 431 kts | 306° |
| 2026-05-06 16:05 | 58.15663 | 8.07654 | 37971 ft | 430 kts | 306° |
| 2026-05-06 16:06 | 58.19619 | 7.99142 | 37965 ft | 430 kts | 306° |
| 2026-05-06 16:06 | 58.23542 | 7.90673 | 37971 ft | 430 kts | 306° |
| 2026-05-06 16:07 | 58.27482 | 7.82137 | 37966 ft | 430 kts | 306° |
| 2026-05-06 16:07 | 58.31414 | 7.73585 | 37962 ft | 429 kts | 306° |
| 2026-05-06 16:08 | 58.35334 | 7.65028 | 37958 ft | 429 kts | 306° |
| 2026-05-06 16:08 | 58.39242 | 7.56466 | 37963 ft | 428 kts | 306° |
| 2026-05-06 16:09 | 58.43143 | 7.47887 | 37963 ft | 427 kts | 306° |
| 2026-05-06 16:09 | 58.47029 | 7.39309 | 37960 ft | 427 kts | 306° |
| 2026-05-06 16:10 | 58.50900 | 7.30735 | 37970 ft | 426 kts | 306° |
| 2026-05-06 16:10 | 58.54760 | 7.22153 | 37988 ft | 425 kts | 306° |
| 2026-05-06 16:11 | 58.58617 | 7.13545 | 37991 ft | 425 kts | 306° |
| 2026-05-06 16:11 | 58.62466 | 7.04922 | 37991 ft | 425 kts | 306° |
| 2026-05-06 16:12 | 58.66281 | 6.96343 | 37990 ft | 425 kts | 306° |
| 2026-05-06 16:12 | 58.70143 | 6.87630 | 37995 ft | 425 kts | 306° |
| 2026-05-06 16:13 | 58.73945 | 6.79019 | 38007 ft | 425 kts | 306° |
| 2026-05-06 16:13 | 58.77769 | 6.70324 | 38001 ft | 425 kts | 306° |
| 2026-05-06 16:14 | 58.81587 | 6.61612 | 38001 ft | 425 kts | 306° |
| 2026-05-06 16:14 | 58.85397 | 6.52885 | 38015 ft | 425 kts | 306° |
| 2026-05-06 16:15 | 58.89203 | 6.44133 | 38020 ft | 425 kts | 306° |
| 2026-05-06 16:15 | 58.93000 | 6.35372 | 38022 ft | 425 kts | 305° |
| 2026-05-06 16:16 | 58.94913 | 6.30939 | 37497 ft | 432 kts | 305° |
| 2026-05-06 16:16 | 58.96830 | 6.26495 | 36937 ft | 429 kts | 305° |
| 2026-05-06 16:16 | 58.98741 | 6.22057 | 36322 ft | 428 kts | 304° |
| 2026-05-06 16:16 | 59.00645 | 6.17630 | 35640 ft | 427 kts | 304° |
| 2026-05-06 16:17 | 59.02545 | 6.13202 | 35071 ft | 424 kts | 304° |
| 2026-05-06 16:17 | 59.04424 | 6.08816 | 34531 ft | 421 kts | 303° |
| 2026-05-06 16:17 | 59.06500 | 6.04783 | 34007 ft | 428 kts | 316° |
| 2026-05-06 16:17 | 59.09081 | 6.01822 | 33400 ft | 437 kts | 330° |
| 2026-05-06 16:18 | 59.12029 | 6.00158 | 32869 ft | 443 kts | 340° |
| 2026-05-06 16:18 | 59.15040 | 5.99016 | 32343 ft | 440 kts | 341° |
| 2026-05-06 16:18 | 59.18046 | 5.97978 | 31839 ft | 435 kts | 341° |
| 2026-05-06 16:18 | 59.21013 | 5.96953 | 31351 ft | 430 kts | 341° |
| 2026-05-06 16:19 | 59.23937 | 5.95904 | 30878 ft | 426 kts | 340° |
| 2026-05-06 16:19 | 59.26837 | 5.94826 | 30408 ft | 422 kts | 339° |
| 2026-05-06 16:19 | 59.29702 | 5.93735 | 29917 ft | 418 kts | 339° |
| 2026-05-06 16:19 | 59.32539 | 5.92642 | 29373 ft | 413 kts | 339° |
| 2026-05-06 16:20 | 59.35344 | 5.91557 | 28857 ft | 408 kts | 339° |
| 2026-05-06 16:20 | 59.38108 | 5.90491 | 28367 ft | 402 kts | 339° |
| 2026-05-06 16:20 | 59.40835 | 5.89438 | 27892 ft | 397 kts | 339° |
| 2026-05-06 16:20 | 59.43533 | 5.88413 | 27400 ft | 394 kts | 340° |
| 2026-05-06 16:21 | 59.46220 | 5.87740 | 26923 ft | 395 kts | 345° |
| 2026-05-06 16:21 | 59.48951 | 5.87331 | 26454 ft | 392 kts | 346° |
| 2026-05-06 16:21 | 59.51658 | 5.86990 | 26011 ft | 388 kts | 346° |
| 2026-05-06 16:21 | 59.54339 | 5.86632 | 25509 ft | 384 kts | 346° |
| 2026-05-06 16:22 | 59.56986 | 5.86243 | 25052 ft | 379 kts | 346° |
| 2026-05-06 16:22 | 59.59595 | 5.85831 | 24605 ft | 374 kts | 345° |
| 2026-05-06 16:22 | 59.62177 | 5.85408 | 24146 ft | 370 kts | 345° |
| 2026-05-06 16:22 | 59.64728 | 5.84988 | 23699 ft | 366 kts | 345° |
| 2026-05-06 16:23 | 59.67249 | 5.84572 | 23172 ft | 362 kts | 345° |
| 2026-05-06 16:23 | 59.69744 | 5.84156 | 22695 ft | 357 kts | 345° |
| 2026-05-06 16:23 | 59.72208 | 5.83752 | 22230 ft | 353 kts | 345° |
| 2026-05-06 16:23 | 59.74640 | 5.83351 | 21766 ft | 349 kts | 345° |
| 2026-05-06 16:24 | 59.77042 | 5.82953 | 21308 ft | 344 kts | 346° |
| 2026-05-06 16:24 | 59.79412 | 5.82560 | 20884 ft | 340 kts | 345° |
| 2026-05-06 16:24 | 59.81758 | 5.82171 | 20426 ft | 337 kts | 345° |
| 2026-05-06 16:24 | 59.84059 | 5.81594 | 19970 ft | 330 kts | 341° |
| 2026-05-06 16:25 | 59.86306 | 5.80799 | 19546 ft | 326 kts | 340° |
| 2026-05-06 16:25 | 59.88531 | 5.79949 | 19103 ft | 325 kts | 340° |
| 2026-05-06 16:25 | 59.90688 | 5.78827 | 18708 ft | 315 kts | 331° |
| 2026-05-06 16:25 | 59.92698 | 5.77209 | 18332 ft | 309 kts | 329° |
| 2026-05-06 16:26 | 59.94670 | 5.75543 | 17808 ft | 308 kts | 329° |
| 2026-05-06 16:26 | 59.96630 | 5.73875 | 17334 ft | 305 kts | 329° |
| 2026-05-06 16:26 | 59.98580 | 5.72223 | 16864 ft | 303 kts | 330° |
| 2026-05-06 16:26 | 60.00511 | 5.70594 | 16410 ft | 301 kts | 330° |
| 2026-05-06 16:27 | 60.02434 | 5.68979 | 15944 ft | 299 kts | 331° |
| 2026-05-06 16:27 | 60.04343 | 5.67378 | 15526 ft | 297 kts | 331° |
| 2026-05-06 16:27 | 60.06241 | 5.65788 | 15105 ft | 295 kts | 332° |
| 2026-05-06 16:27 | 60.08129 | 5.64209 | 14651 ft | 293 kts | 332° |
| 2026-05-06 16:28 | 60.10008 | 5.62636 | 14225 ft | 291 kts | 332° |
| 2026-05-06 16:28 | 60.11871 | 5.61075 | 13801 ft | 290 kts | 333° |
| 2026-05-06 16:28 | 60.13724 | 5.59521 | 13309 ft | 288 kts | 333° |
| 2026-05-06 16:28 | 60.15573 | 5.57969 | 12819 ft | 287 kts | 333° |
| 2026-05-06 16:29 | 60.16792 | 5.56944 | 12519 ft | 286 kts | 334° |
| 2026-05-06 16:29 | 60.18599 | 5.55427 | 12361 ft | 275 kts | 334° |
| 2026-05-06 16:29 | 60.20331 | 5.53974 | 12188 ft | 266 kts | 334° |
| 2026-05-06 16:29 | 60.22576 | 5.52084 | 11658 ft | 264 kts | 334° |
| 2026-05-06 16:30 | 60.24273 | 5.50657 | 11250 ft | 265 kts | 335° |
| 2026-05-06 16:30 | 60.24847 | 5.50174 | 11128 ft | 264 kts | 335° |
| 2026-05-06 16:30 | 60.27113 | 5.48259 | 10637 ft | 263 kts | 335° |
| 2026-05-06 16:30 | 60.28796 | 5.46828 | 10234 ft | 263 kts | 335° |
| 2026-05-06 16:31 | 60.30479 | 5.45397 | 9878 ft | 262 kts | 335° |
| 2026-05-06 16:31 | 60.32152 | 5.43977 | 9493 ft | 261 kts | 335° |
| 2026-05-06 16:31 | 60.33820 | 5.42560 | 9116 ft | 259 kts | 335° |
| 2026-05-06 16:31 | 60.35456 | 5.41169 | 8748 ft | 258 kts | 335° |
| 2026-05-06 16:32 | 60.37110 | 5.39761 | 8408 ft | 257 kts | 335° |
| 2026-05-06 16:32 | 60.38751 | 5.38362 | 8051 ft | 255 kts | 335° |
| 2026-05-06 16:32 | 60.40384 | 5.36969 | 7690 ft | 254 kts | 335° |
| 2026-05-06 16:32 | 60.42007 | 5.35585 | 7335 ft | 253 kts | 335° |
| 2026-05-06 16:33 | 60.43622 | 5.34205 | 6982 ft | 252 kts | 335° |
| 2026-05-06 16:33 | 60.45232 | 5.32828 | 6665 ft | 251 kts | 335° |
| 2026-05-06 16:33 | 60.46817 | 5.31472 | 6506 ft | 242 kts | 335° |
| 2026-05-06 16:34 | 60.49147 | 5.27374 | 6277 ft | 219 kts | 289° |
| 2026-05-06 16:34 | 60.49359 | 5.24394 | 6129 ft | 211 kts | 267° |
| 2026-05-06 16:34 | 60.49008 | 5.21562 | 5998 ft | 205 kts | 247° |
| 2026-05-06 16:34 | 60.48348 | 5.19015 | 5784 ft | 203 kts | 243° |
| 2026-05-06 16:35 | 60.47510 | 5.16736 | 5483 ft | 207 kts | 218° |
| 2026-05-06 16:35 | 60.46140 | 5.15925 | 5193 ft | 213 kts | 176° |
| 2026-05-06 16:35 | 60.44689 | 5.16486 | 4953 ft | 211 kts | 172° |
| 2026-05-06 16:35 | 60.43157 | 5.17069 | 4018 ft | 236 kts | 172° |
| 2026-05-06 16:36 | 60.41509 | 5.17676 | 3405 ft | 236 kts | 171° |
| 2026-05-06 16:36 | 60.39922 | 5.18252 | 2690 ft | 230 kts | 173° |
| 2026-05-06 16:36 | 60.38352 | 5.18781 | 1946 ft | 228 kts | 173° |
| 2026-05-06 16:36 | 60.36827 | 5.19293 | 1418 ft | 213 kts | 173° |
| 2026-05-06 16:37 | 60.35442 | 5.19760 | 1132 ft | 191 kts | 173° |
| 2026-05-06 16:37 | 60.34199 | 5.20180 | 899 ft | 172 kts | 174° |
| 2026-05-06 16:37 | 60.33076 | 5.20556 | 688 ft | 161 kts | 174° |
| 2026-05-06 16:37 | 60.32013 | 5.20913 | 475 ft | 148 kts | 173° |
| 2026-05-06 16:38 | 60.31037 | 5.21251 | 326 ft | 138 kts | 173° |
| 2026-05-06 16:38 | 60.30136 | 5.21563 | 177 ft | 123 kts | 176° |
| 2026-05-06 16:38 | 60.29398 | 5.21799 | 165 ft | 74 kts | 171° |
| 2026-05-06 16:38 | 60.29036 | 5.21920 | 161 ft | 40 kts | 169° |
| 2026-05-06 16:39 | 60.28920 | 5.22035 | 160 ft | 9 kts | 103° |
| 2026-05-06 16:39 | 60.28921 | 5.22145 | 160 ft | 5 kts | 79° |
| 2026-05-06 16:39 | 60.28923 | 5.22163 | 161 ft | 0 kts | 78° |
| 2026-05-06 16:40 | 60.28924 | 5.22169 | 161 ft | 3 kts | 78° |
| 2026-05-06 16:40 | 60.28933 | 5.22273 | 161 ft | 10 kts | 81° |
| 2026-05-06 16:40 | 60.28966 | 5.22376 | 161 ft | 9 kts | 14° |
| 2026-05-06 16:41 | 60.29023 | 5.22393 | 162 ft | 9 kts | 43° |
| 2026-05-06 16:41 | 60.29006 | 5.22490 | 161 ft | 8 kts | 138° |
| 2026-05-06 16:41 | 60.28969 | 5.22553 | 161 ft | 2 kts | 125° |
| 2026-05-06 16:41 | 60.28965 | 5.22566 | 161 ft | 0 kts | 140° |